^^
Your Local Weather - Clay, NY Station Historical Data
Daily Summary for February 25, 2018 Units:  Both    English   Metric
« Previous Day
Next Day »
Daily Weekly Monthly Yearly Custom
  High: Low: Average:
Temperature: 49.2 °F /  9.6 °C 33.3 °F /  0.7 °C 39.4 °F /  4.1 °C
Dew Point: 45.8 °F /  7.7 °C 29.4 °F /  -1.4 °C 35.9 °F /  2.2 °C
Humidity: 93% 72% 87%
Wind Speed: 8.0mph /  12.9km/h - 2.6mph /  4.2km/h
Wind Gust: 17.0mph /  27.4km/h - -
Wind- - ESE
Pressure: 30.13 in /  1020.2 hPa 29.77 in /  1008 hPa -
Precipitation: 0.38 in /  9.65 mm    
Historical Graphs
 
 
Tabular Data for February 25, 2018
Time Temperature Dew Point Pressure Wind Wind Speed Wind Gust Humidity Rainfall Rate (Hourly) solar
00:04 33.3 °F /  0.7 °C 29.6 °F /  -1.3 °C 30.13in /  1020.2hPa ENE 1.0mph /  1.6km/h 3.0mph /  4.8km/h 86% 0.00in /  0mm 0 W/m2
00:10 33.4 °F /  0.8 °C 29.7 °F /  -1.3 °C 30.12in /  1019.9hPa ENE 1.0mph /  1.6km/h 1.0mph /  1.6km/h 86% 0.00in /  0mm 0 W/m2
00:16 33.5 °F /  0.8 °C 29.5 °F /  -1.4 °C 30.12in /  1019.9hPa ENE 1.0mph /  1.6km/h 2.0mph /  3.2km/h 85% 0.00in /  0mm 0 W/m2
00:22 33.7 °F /  0.9 °C 29.7 °F /  -1.3 °C 30.13in /  1020.2hPa East 1.0mph /  1.6km/h 3.0mph /  4.8km/h 85% 0.00in /  0mm 0 W/m2
00:28 33.7 °F /  0.9 °C 29.7 °F /  -1.3 °C 30.12in /  1019.9hPa East 1.0mph /  1.6km/h 3.0mph /  4.8km/h 85% 0.00in /  0mm 0 W/m2
00:34 33.8 °F /  1 °C 29.5 °F /  -1.4 °C 30.13in /  1020.2hPa East 1.0mph /  1.6km/h 2.0mph /  3.2km/h 84% 0.00in /  0mm 0 W/m2
00:40 33.9 °F /  1.1 °C 29.6 °F /  -1.3 °C 30.13in /  1020.2hPa ENE 2.0mph /  3.2km/h 2.0mph /  3.2km/h 84% 0.00in /  0mm 0 W/m2
00:46 33.9 °F /  1.1 °C 29.6 °F /  -1.3 °C 30.13in /  1020.2hPa ENE 1.0mph /  1.6km/h 2.0mph /  3.2km/h 84% 0.00in /  0mm 0 W/m2
00:52 33.9 °F /  1.1 °C 29.6 °F /  -1.3 °C 30.13in /  1020.2hPa ENE 1.0mph /  1.6km/h 2.0mph /  3.2km/h 84% 0.00in /  0mm 0 W/m2
00:58 34.0 °F /  1.1 °C 29.7 °F /  -1.3 °C 30.12in /  1019.9hPa East 2.0mph /  3.2km/h 6.0mph /  9.7km/h 84% 0.00in /  0mm 0 W/m2
01:04 34.0 °F /  1.1 °C 29.7 °F /  -1.3 °C 30.12in /  1019.9hPa NE 3.0mph /  4.8km/h 4.0mph /  6.4km/h 84% 0.00in /  0mm 0 W/m2
01:10 34.0 °F /  1.1 °C 29.4 °F /  -1.4 °C 30.11in /  1019.5hPa ENE 2.0mph /  3.2km/h 3.0mph /  4.8km/h 83% 0.00in /  0mm 0 W/m2
01:16 34.0 °F /  1.1 °C 29.4 °F /  -1.4 °C 30.10in /  1019.2hPa NE 2.0mph /  3.2km/h 3.0mph /  4.8km/h 83% 0.00in /  0mm 0 W/m2
01:22 34.0 °F /  1.1 °C 29.4 °F /  -1.4 °C 30.10in /  1019.2hPa ENE 2.0mph /  3.2km/h 3.0mph /  4.8km/h 83% 0.00in /  0mm 0 W/m2
01:28 34.1 °F /  1.2 °C 29.5 °F /  -1.4 °C 30.10in /  1019.2hPa ENE 2.0mph /  3.2km/h 3.0mph /  4.8km/h 83% 0.00in /  0mm 0 W/m2
01:34 34.1 °F /  1.2 °C 29.5 °F /  -1.4 °C 30.10in /  1019.2hPa East 2.0mph /  3.2km/h 8.0mph /  12.9km/h 83% 0.00in /  0mm 0 W/m2
01:40 34.2 °F /  1.2 °C 29.6 °F /  -1.3 °C 30.09in /  1018.8hPa ENE 5.0mph /  8km/h 8.0mph /  12.9km/h 83% 0.00in /  0mm 0 W/m2
01:46 34.2 °F /  1.2 °C 29.6 °F /  -1.3 °C 30.08in /  1018.5hPa East 5.0mph /  8km/h 9.0mph /  14.5km/h 83% 0.00in /  0mm 0 W/m2
01:52 34.3 °F /  1.3 °C 29.7 °F /  -1.3 °C 30.08in /  1018.5hPa ENE 4.0mph /  6.4km/h 6.0mph /  9.7km/h 83% 0.00in /  0mm 0 W/m2
01:58 34.2 °F /  1.2 °C 29.6 °F /  -1.3 °C 30.08in /  1018.5hPa East 5.0mph /  8km/h 6.0mph /  9.7km/h 83% 0.00in /  0mm 0 W/m2
02:04 34.2 °F /  1.2 °C 29.6 °F /  -1.3 °C 30.07in /  1018.2hPa East 4.0mph /  6.4km/h 6.0mph /  9.7km/h 83% 0.00in /  0mm 0 W/m2
02:10 34.3 °F /  1.3 °C 29.7 °F /  -1.3 °C 30.07in /  1018.2hPa ESE 4.0mph /  6.4km/h 4.0mph /  6.4km/h 83% 0.00in /  0mm 0 W/m2
02:16 34.3 °F /  1.3 °C 30.0 °F /  -1.1 °C 30.07in /  1018.2hPa ESE 4.0mph /  6.4km/h 5.0mph /  8km/h 84% 0.00in /  0mm 0 W/m2
02:22 34.3 °F /  1.3 °C 30.0 °F /  -1.1 °C 30.06in /  1017.8hPa ESE 3.0mph /  4.8km/h 3.0mph /  4.8km/h 84% 0.00in /  0mm 0 W/m2
02:28 34.3 °F /  1.3 °C 30.3 °F /  -0.9 °C 30.05in /  1017.5hPa East 3.0mph /  4.8km/h 7.0mph /  11.3km/h 85% 0.00in /  0mm 0 W/m2
02:34 34.4 °F /  1.3 °C 30.4 °F /  -0.9 °C 30.05in /  1017.5hPa ENE 4.0mph /  6.4km/h 4.0mph /  6.4km/h 85% 0.00in /  0mm 0 W/m2
02:40 34.4 °F /  1.3 °C 30.6 °F /  -0.8 °C 30.04in /  1017.2hPa East 3.0mph /  4.8km/h 3.0mph /  4.8km/h 86% 0.00in /  0mm 0 W/m2
02:46 34.4 °F /  1.3 °C 30.6 °F /  -0.8 °C 30.03in /  1016.8hPa East 4.0mph /  6.4km/h 4.0mph /  6.4km/h 86% 0.00in /  0mm 0 W/m2
02:52 34.4 °F /  1.3 °C 30.9 °F /  -0.6 °C 30.03in /  1016.8hPa NE 3.0mph /  4.8km/h 3.0mph /  4.8km/h 87% 0.00in /  0mm 0 W/m2
02:58 34.5 °F /  1.4 °C 31.0 °F /  -0.6 °C 30.02in /  1016.5hPa SE 4.0mph /  6.4km/h 5.0mph /  8km/h 87% 0.00in /  0mm 0 W/m2
03:04 34.5 °F /  1.4 °C 31.0 °F /  -0.6 °C 30.01in /  1016.1hPa ENE 4.0mph /  6.4km/h 7.0mph /  11.3km/h 87% 0.06in /  1.52mm 0 W/m2
03:10 34.6 °F /  1.4 °C 31.1 °F /  -0.5 °C 30.00in /  1015.8hPa East 5.0mph /  8km/h 7.0mph /  11.3km/h 87% 0.06in /  1.52mm 0 W/m2
03:16 34.7 °F /  1.5 °C 31.5 °F /  -0.3 °C 29.99in /  1015.5hPa ESE 5.0mph /  8km/h 7.0mph /  11.3km/h 88% 0.05in /  1.27mm 0 W/m2
03:22 34.7 °F /  1.5 °C 31.5 °F /  -0.3 °C 29.99in /  1015.5hPa ENE 4.0mph /  6.4km/h 9.0mph /  14.5km/h 88% 0.00in /  0mm 0 W/m2
03:28 34.7 °F /  1.5 °C 31.5 °F /  -0.3 °C 29.97in /  1014.8hPa East 5.0mph /  8km/h 9.0mph /  14.5km/h 88% 0.00in /  0mm 0 W/m2
03:34 34.6 °F /  1.4 °C 31.4 °F /  -0.3 °C 29.96in /  1014.4hPa NE 5.0mph /  8km/h 7.0mph /  11.3km/h 88% 0.06in /  1.52mm 0 W/m2
03:40 34.6 °F /  1.4 °C 31.4 °F /  -0.3 °C 29.94in /  1013.8hPa ESE 6.0mph /  9.7km/h 6.0mph /  9.7km/h 88% 0.06in /  1.52mm 0 W/m2
03:46 34.6 °F /  1.4 °C 31.4 °F /  -0.3 °C 29.94in /  1013.8hPa East 7.0mph /  11.3km/h 7.0mph /  11.3km/h 88% 0.05in /  1.27mm 0 W/m2
03:52 34.5 °F /  1.4 °C 31.6 °F /  -0.2 °C 29.96in /  1014.4hPa East 7.0mph /  11.3km/h 7.0mph /  11.3km/h 89% 0.00in /  0mm 0 W/m2
03:58 34.6 °F /  1.4 °C 31.7 °F /  -0.2 °C 29.99in /  1015.5hPa SE 5.0mph /  8km/h 7.0mph /  11.3km/h 89% 0.00in /  0mm 0 W/m2
04:04 34.6 °F /  1.4 °C 31.7 °F /  -0.2 °C 29.97in /  1014.8hPa ENE 4.0mph /  6.4km/h 4.0mph /  6.4km/h 89% 0.07in /  1.78mm 0 W/m2
04:10 34.6 °F /  1.4 °C 31.7 °F /  -0.2 °C 29.97in /  1014.8hPa ESE 3.0mph /  4.8km/h 4.0mph /  6.4km/h 89% 0.08in /  2.03mm 0 W/m2
04:16 34.5 °F /  1.4 °C 31.6 °F /  -0.2 °C 29.96in /  1014.4hPa ENE 4.0mph /  6.4km/h 9.0mph /  14.5km/h 89% 0.07in /  1.78mm 0 W/m2
04:22 34.5 °F /  1.4 °C 31.6 °F /  -0.2 °C 29.96in /  1014.4hPa ESE 4.0mph /  6.4km/h 4.0mph /  6.4km/h 89% 0.04in /  1.02mm 0 W/m2
04:28 34.4 °F /  1.3 °C 31.8 °F /  -0.1 °C 29.94in /  1013.8hPa East 4.0mph /  6.4km/h 5.0mph /  8km/h 90% 0.00in /  0mm 0 W/m2
04:34 34.4 °F /  1.3 °C 31.8 °F /  -0.1 °C 29.94in /  1013.8hPa East 6.0mph /  9.7km/h 7.0mph /  11.3km/h 90% 0.00in /  0mm 0 W/m2
04:40 34.4 °F /  1.3 °C 31.8 °F /  -0.1 °C 29.93in /  1013.4hPa SE 6.0mph /  9.7km/h 6.0mph /  9.7km/h 90% 0.04in /  1.02mm 0 W/m2
04:46 34.3 °F /  1.3 °C 31.7 °F /  -0.2 °C 29.93in /  1013.4hPa East 5.0mph /  8km/h 9.0mph /  14.5km/h 90% 0.04in /  1.02mm 0 W/m2
04:52 34.3 °F /  1.3 °C 31.7 °F /  -0.2 °C 29.92in /  1013.1hPa East 5.0mph /  8km/h 7.0mph /  11.3km/h 90% 0.04in /  1.02mm 0 W/m2
04:58 34.3 °F /  1.3 °C 31.7 °F /  -0.2 °C 29.92in /  1013.1hPa NE 6.0mph /  9.7km/h 8.0mph /  12.9km/h 90% 0.00in /  0mm 0 W/m2
05:04 34.2 °F /  1.2 °C 31.6 °F /  -0.2 °C 29.93in /  1013.4hPa ENE 5.0mph /  8km/h 7.0mph /  11.3km/h 90% 0.00in /  0mm 0 W/m2
05:10 34.2 °F /  1.2 °C 31.6 °F /  -0.2 °C 29.92in /  1013.1hPa East 3.0mph /  4.8km/h 7.0mph /  11.3km/h 90% 0.00in /  0mm 0 W/m2
05:16 34.2 °F /  1.2 °C 31.6 °F /  -0.2 °C 29.91in /  1012.8hPa ENE 4.0mph /  6.4km/h 10.0mph /  16.1km/h 90% 0.05in /  1.27mm 0 W/m2
05:22 34.1 °F /  1.2 °C 31.7 °F /  -0.2 °C 29.91in /  1012.8hPa ESE 6.0mph /  9.7km/h 7.0mph /  11.3km/h 91% 0.10in /  2.54mm 0 W/m2
05:28 34.0 °F /  1.1 °C 31.6 °F /  -0.2 °C 29.90in /  1012.4hPa ENE 6.0mph /  9.7km/h 10.0mph /  16.1km/h 91% 0.09in /  2.29mm 0 W/m2
05:34 33.9 °F /  1.1 °C 31.6 °F /  -0.2 °C 29.89in /  1012.1hPa ENE 6.0mph /  9.7km/h 8.0mph /  12.9km/h 91% 0.10in /  2.54mm 0 W/m2
05:40 33.7 °F /  0.9 °C 31.4 °F /  -0.3 °C 29.89in /  1012.1hPa ENE 5.0mph /  8km/h 5.0mph /  8km/h 91% 0.10in /  2.54mm 0 W/m2
05:46 33.6 °F /  0.9 °C 31.3 °F /  -0.4 °C 29.88in /  1011.7hPa ENE 4.0mph /  6.4km/h 5.0mph /  8km/h 91% 0.13in /  3.3mm 0 W/m2
05:52 33.6 °F /  0.9 °C 31.3 °F /  -0.4 °C 29.87in /  1011.4hPa ENE 5.0mph /  8km/h 8.0mph /  12.9km/h 91% 0.17in /  4.32mm 0 W/m2
05:58 33.6 °F /  0.9 °C 31.3 °F /  -0.4 °C 29.86in /  1011.1hPa ENE 5.0mph /  8km/h 8.0mph /  12.9km/h 91% 0.08in /  2.03mm 0 W/m2
06:04 33.6 °F /  0.9 °C 31.5 °F /  -0.3 °C 29.85in /  1010.7hPa ESE 6.0mph /  9.7km/h 9.0mph /  14.5km/h 92% 0.08in /  2.03mm 0 W/m2
06:10 33.6 °F /  0.9 °C 31.5 °F /  -0.3 °C 29.85in /  1010.7hPa ENE 6.0mph /  9.7km/h 6.0mph /  9.7km/h 92% 0.07in /  1.78mm 0 W/m2
06:16 33.6 °F /  0.9 °C 31.5 °F /  -0.3 °C 29.84in /  1010.4hPa East 6.0mph /  9.7km/h 10.0mph /  16.1km/h 92% 0.07in /  1.78mm 0 W/m2
06:22 33.6 °F /  0.9 °C 31.5 °F /  -0.3 °C 29.84in /  1010.4hPa East 5.0mph /  8km/h 5.0mph /  8km/h 92% 0.07in /  1.78mm 0 W/m2
06:28 33.6 °F /  0.9 °C 31.5 °F /  -0.3 °C 29.83in /  1010hPa East 6.0mph /  9.7km/h 6.0mph /  9.7km/h 92% 0.08in /  2.03mm 0 W/m2
06:34 33.6 °F /  0.9 °C 31.5 °F /  -0.3 °C 29.83in /  1010hPa East 5.0mph /  8km/h 5.0mph /  8km/h 92% 0.08in /  2.03mm 0 W/m2
06:40 33.6 °F /  0.9 °C 31.5 °F /  -0.3 °C 29.82in /  1009.7hPa SSE 5.0mph /  8km/h 5.0mph /  8km/h 92% 0.07in /  1.78mm 0 W/m2
06:46 33.7 °F /  0.9 °C 31.6 °F /  -0.2 °C 29.81in /  1009.4hPa ENE 5.0mph /  8km/h 5.0mph /  8km/h 92% 0.06in /  1.52mm 0 W/m2
06:52 33.7 °F /  0.9 °C 31.6 °F /  -0.2 °C 29.81in /  1009.4hPa East 4.0mph /  6.4km/h 8.0mph /  12.9km/h 92% 0.11in /  2.79mm 0 W/m2
06:58 33.8 °F /  1 °C 31.7 °F /  -0.2 °C 29.80in /  1009hPa East 4.0mph /  6.4km/h 9.0mph /  14.5km/h 92% 0.09in /  2.29mm 0 W/m2
07:04 33.8 °F /  1 °C 31.7 °F /  -0.2 °C 29.80in /  1009hPa East 5.0mph /  8km/h 5.0mph /  8km/h 92% 0.05in /  1.27mm 0 W/m2
07:10 34.0 °F /  1.1 °C 31.9 °F /  -0.1 °C 29.80in /  1009hPa East 5.0mph /  8km/h 5.0mph /  8km/h 92% 0.05in /  1.27mm 0 W/m2
07:16 34.1 °F /  1.2 °C 32.3 °F /  0.2 °C 29.79in /  1008.7hPa East 5.0mph /  8km/h 7.0mph /  11.3km/h 93% 0.07in /  1.78mm 0 W/m2
07:22 34.1 °F /  1.2 °C 32.3 °F /  0.2 °C 29.79in /  1008.7hPa SE 4.0mph /  6.4km/h 7.0mph /  11.3km/h 93% 0.06in /  1.52mm 7 W/m2
07:28 34.2 °F /  1.2 °C 32.4 °F /  0.2 °C 29.80in /  1009hPa NE 4.0mph /  6.4km/h 8.0mph /  12.9km/h 93% 0.05in /  1.27mm 5 W/m2
07:34 34.2 °F /  1.2 °C 32.4 °F /  0.2 °C 29.79in /  1008.7hPa ENE 4.0mph /  6.4km/h 5.0mph /  8km/h 93% 0.09in /  2.29mm 7 W/m2
07:40 34.4 °F /  1.3 °C 32.6 °F /  0.3 °C 29.79in /  1008.7hPa ENE 4.0mph /  6.4km/h 4.0mph /  6.4km/h 93% 0.16in /  4.06mm 5 W/m2
07:46 34.6 °F /  1.4 °C 32.8 °F /  0.4 °C 29.80in /  1009hPa East 4.0mph /  6.4km/h 4.0mph /  6.4km/h 93% 0.13in /  3.3mm 9 W/m2
07:52 34.7 °F /  1.5 °C 32.9 °F /  0.5 °C 29.81in /  1009.4hPa East 4.0mph /  6.4km/h 5.0mph /  8km/h 93% 0.16in /  4.06mm 5 W/m2
07:58 34.9 °F /  1.6 °C 33.1 °F /  0.6 °C 29.82in /  1009.7hPa East 4.0mph /  6.4km/h 6.0mph /  9.7km/h 93% 0.13in /  3.3mm 5 W/m2
08:04 35.2 °F /  1.8 °C 33.4 °F /  0.8 °C 29.81in /  1009.4hPa ENE 4.0mph /  6.4km/h 7.0mph /  11.3km/h 93% 0.06in /  1.52mm 5 W/m2
08:10 35.4 °F /  1.9 °C 33.6 °F /  0.9 °C 29.82in /  1009.7hPa ENE 3.0mph /  4.8km/h 4.0mph /  6.4km/h 93% 0.05in /  1.27mm 7 W/m2
08:16 35.8 °F /  2.1 °C 34.0 °F /  1.1 °C 29.80in /  1009hPa East 2.0mph /  3.2km/h 4.0mph /  6.4km/h 93% 0.05in /  1.27mm 9 W/m2
08:22 35.6 °F /  2 °C 33.8 °F /  1 °C 29.80in /  1009hPa East 3.0mph /  4.8km/h 9.0mph /  14.5km/h 93% 0.04in /  1.02mm 9 W/m2
08:28 35.5 °F /  1.9 °C 33.7 °F /  0.9 °C 29.79in /  1008.7hPa ESE 5.0mph /  8km/h 9.0mph /  14.5km/h 93% 0.00in /  0mm 18 W/m2
08:34 35.6 °F /  2 °C 33.8 °F /  1 °C 29.79in /  1008.7hPa NE 4.0mph /  6.4km/h 5.0mph /  8km/h 93% 0.00in /  0mm 18 W/m2
08:40 35.7 °F /  2.1 °C 33.9 °F /  1.1 °C 29.79in /  1008.7hPa East 2.0mph /  3.2km/h 3.0mph /  4.8km/h 93% 0.00in /  0mm 18 W/m2
08:46 36.1 °F /  2.3 °C 34.3 °F /  1.3 °C 29.78in /  1008.4hPa ENE 2.0mph /  3.2km/h 3.0mph /  4.8km/h 93% 0.00in /  0mm 18 W/m2
08:52 36.6 °F /  2.6 °C 34.8 °F /  1.6 °C 29.79in /  1008.7hPa East 2.0mph /  3.2km/h 3.0mph /  4.8km/h 93% 0.00in /  0mm 21 W/m2
08:58 36.8 °F /  2.7 °C 35.0 °F /  1.7 °C 29.78in /  1008.4hPa NE 1.0mph /  1.6km/h 3.0mph /  4.8km/h 93% 0.00in /  0mm 26 W/m2
09:04 36.9 °F /  2.7 °C 35.1 °F /  1.7 °C 29.78in /  1008.4hPa ENE 2.0mph /  3.2km/h 4.0mph /  6.4km/h 93% 0.00in /  0mm 42 W/m2
09:10 36.7 °F /  2.6 °C 34.9 °F /  1.6 °C 29.77in /  1008hPa East 3.0mph /  4.8km/h 3.0mph /  4.8km/h 93% 0.00in /  0mm 54 W/m2
09:16 36.8 °F /  2.7 °C 35.0 °F /  1.7 °C 29.77in /  1008hPa East 3.0mph /  4.8km/h 5.0mph /  8km/h 93% 0.00in /  0mm 42 W/m2
09:22 37.2 °F /  2.9 °C 35.4 °F /  1.9 °C 29.77in /  1008hPa East 3.0mph /  4.8km/h 5.0mph /  8km/h 93% 0.00in /  0mm 25 W/m2
09:28 37.6 °F /  3.1 °C 35.8 °F /  2.1 °C 29.78in /  1008.4hPa ENE 2.0mph /  3.2km/h 5.0mph /  8km/h 93% 0.00in /  0mm 16 W/m2
09:34 38.3 °F /  3.5 °C 36.5 °F /  2.5 °C 29.78in /  1008.4hPa SE 1.0mph /  1.6km/h 4.0mph /  6.4km/h 93% 0.00in /  0mm 28 W/m2
09:46 40.5 °F /  4.7 °C 38.6 °F /  3.7 °C 29.78in /  1008.4hPa SE 3.0mph /  4.8km/h 3.0mph /  4.8km/h 93% 0.00in /  0mm 42 W/m2
09:52 41.9 °F /  5.5 °C 40.0 °F /  4.4 °C 29.78in /  1008.4hPa SSE 4.0mph /  6.4km/h 5.0mph /  8km/h 93% 0.00in /  0mm 49 W/m2
09:58 42.4 °F /  5.8 °C 40.5 °F /  4.7 °C 29.77in /  1008hPa SE 4.0mph /  6.4km/h 5.0mph /  8km/h 93% 0.00in /  0mm 58 W/m2
10:04 42.8 °F /  6 °C 40.9 °F /  4.9 °C 29.77in /  1008hPa SE 4.0mph /  6.4km/h 10.0mph /  16.1km/h 93% 0.00in /  0mm 35 W/m2
10:10 43.2 °F /  6.2 °C 41.0 °F /  5 °C 29.77in /  1008hPa SSE 4.0mph /  6.4km/h 4.0mph /  6.4km/h 92% 0.00in /  0mm 32 W/m2
10:16 43.3 °F /  6.3 °C 40.8 °F /  4.9 °C 29.77in /  1008hPa SE 4.0mph /  6.4km/h 5.0mph /  8km/h 91% 0.00in /  0mm 35 W/m2
10:22 43.7 °F /  6.5 °C 41.0 °F /  5 °C 29.77in /  1008hPa SE 5.0mph /  8km/h 13.0mph /  20.9km/h 90% 0.00in /  0mm 18 W/m2
10:28 44.4 °F /  6.9 °C 41.1 °F /  5.1 °C 29.77in /  1008hPa SE 6.0mph /  9.7km/h 13.0mph /  20.9km/h 88% 0.00in /  0mm 23 W/m2
10:34 44.7 °F /  7.1 °C 40.8 °F /  4.9 °C 29.77in /  1008hPa ESE 6.0mph /  9.7km/h 7.0mph /  11.3km/h 86% 0.00in /  0mm 21 W/m2
10:40 45.0 °F /  7.2 °C 40.8 °F /  4.9 °C 29.77in /  1008hPa SSE 6.0mph /  9.7km/h 6.0mph /  9.7km/h 85% 0.00in /  0mm 23 W/m2
10:46 45.1 °F /  7.3 °C 40.6 °F /  4.8 °C 29.77in /  1008hPa SSE 5.0mph /  8km/h 6.0mph /  9.7km/h 84% 0.00in /  0mm 26 W/m2
10:52 45.3 °F /  7.4 °C 40.4 °F /  4.7 °C 29.77in /  1008hPa SSE 5.0mph /  8km/h 7.0mph /  11.3km/h 83% 0.00in /  0mm 32 W/m2
10:58 45.4 °F /  7.4 °C 40.5 °F /  4.7 °C 29.77in /  1008hPa SE 6.0mph /  9.7km/h 8.0mph /  12.9km/h 83% 0.00in /  0mm 30 W/m2
11:04 45.7 °F /  7.6 °C 40.5 °F /  4.7 °C 29.77in /  1008hPa SE 6.0mph /  9.7km/h 6.0mph /  9.7km/h 82% 0.00in /  0mm 44 W/m2
11:10 45.7 °F /  7.6 °C 40.5 °F /  4.7 °C 29.77in /  1008hPa South 4.0mph /  6.4km/h 4.0mph /  6.4km/h 82% 0.00in /  0mm 37 W/m2
11:16 45.7 °F /  7.6 °C 40.5 °F /  4.7 °C 29.77in /  1008hPa SSE 4.0mph /  6.4km/h 9.0mph /  14.5km/h 82% 0.00in /  0mm 49 W/m2
11:22 45.9 °F /  7.7 °C 40.4 °F /  4.7 °C 29.77in /  1008hPa South 4.0mph /  6.4km/h 9.0mph /  14.5km/h 81% 0.00in /  0mm 33 W/m2
11:28 45.9 °F /  7.7 °C 40.4 °F /  4.7 °C 29.77in /  1008hPa SSE 4.0mph /  6.4km/h 10.0mph /  16.1km/h 81% 0.00in /  0mm 32 W/m2
11:34 46.2 °F /  7.9 °C 40.4 °F /  4.7 °C 29.77in /  1008hPa SSE 7.0mph /  11.3km/h 12.0mph /  19.3km/h 80% 0.00in /  0mm 39 W/m2
11:40 46.3 °F /  7.9 °C 40.5 °F /  4.7 °C 29.78in /  1008.4hPa SSE 7.0mph /  11.3km/h 7.0mph /  11.3km/h 80% 0.00in /  0mm 42 W/m2
11:46 46.5 °F /  8.1 °C 40.3 °F /  4.6 °C 29.78in /  1008.4hPa SSE 8.0mph /  12.9km/h 17.0mph /  27.4km/h 79% 0.00in /  0mm 33 W/m2
11:52 46.4 °F /  8 °C 40.6 °F /  4.8 °C 29.78in /  1008.4hPa SSE 8.0mph /  12.9km/h 8.0mph /  12.9km/h 80% 0.00in /  0mm 25 W/m2
11:59 46.5 °F /  8.1 °C 40.3 °F /  4.6 °C 29.78in /  1008.4hPa South 6.0mph /  9.7km/h 13.0mph /  20.9km/h 79% 0.00in /  0mm 37 W/m2
12:04 46.6 °F /  8.1 °C 40.4 °F /  4.7 °C 29.78in /  1008.4hPa ESE 6.0mph /  9.7km/h 6.0mph /  9.7km/h 79% 0.00in /  0mm 56 W/m2
12:10 46.6 °F /  8.1 °C 40.8 °F /  4.9 °C 29.80in /  1009hPa ESE 3.0mph /  4.8km/h 3.0mph /  4.8km/h 80% 0.00in /  0mm 33 W/m2
12:16 46.5 °F /  8.1 °C 40.7 °F /  4.8 °C 29.80in /  1009hPa SSE 1.0mph /  1.6km/h 5.0mph /  8km/h 80% 0.00in /  0mm 37 W/m2
12:22 46.5 °F /  8.1 °C 40.7 °F /  4.8 °C 29.81in /  1009.4hPa SSW 2.0mph /  3.2km/h 2.0mph /  3.2km/h 80% 0.00in /  0mm 42 W/m2
12:28 46.3 °F /  7.9 °C 41.1 °F /  5.1 °C 29.81in /  1009.4hPa SSW 1.0mph /  1.6km/h 3.0mph /  4.8km/h 82% 0.00in /  0mm 65 W/m2
12:34 46.2 °F /  7.9 °C 41.3 °F /  5.2 °C 29.82in /  1009.7hPa SE 2.0mph /  3.2km/h 5.0mph /  8km/h 83% 0.00in /  0mm 67 W/m2
12:40 46.2 °F /  7.9 °C 41.6 °F /  5.3 °C 29.82in /  1009.7hPa SSE 2.0mph /  3.2km/h 6.0mph /  9.7km/h 84% 0.00in /  0mm 53 W/m2
12:46 46.2 °F /  7.9 °C 41.9 °F /  5.5 °C 29.82in /  1009.7hPa SSW 3.0mph /  4.8km/h 6.0mph /  9.7km/h 85% 0.00in /  0mm 53 W/m2
12:58 45.8 °F /  7.7 °C 41.9 °F /  5.5 °C 29.82in /  1009.7hPa SSE 2.0mph /  3.2km/h 4.0mph /  6.4km/h 86% 0.00in /  0mm 39 W/m2
13:04 45.8 °F /  7.7 °C 41.9 °F /  5.5 °C 29.81in /  1009.4hPa SSE 1.0mph /  1.6km/h 2.0mph /  3.2km/h 86% 0.00in /  0mm 79 W/m2
13:10 45.8 °F /  7.7 °C 42.2 °F /  5.7 °C 29.80in /  1009hPa SSE 1.0mph /  1.6km/h 1.0mph /  1.6km/h 87% 0.00in /  0mm 120 W/m2
13:16 46.0 °F /  7.8 °C 42.6 °F /  5.9 °C 29.79in /  1008.7hPa ESE 1.0mph /  1.6km/h 4.0mph /  6.4km/h 88% 0.00in /  0mm 102 W/m2
13:22 44.5 °F /  6.9 °C 41.2 °F /  5.1 °C 29.78in /  1008.4hPa ENE 3.0mph /  4.8km/h 3.0mph /  4.8km/h 88% 0.00in /  0mm 141 W/m2
13:28 44.2 °F /  6.8 °C 41.2 °F /  5.1 °C 29.79in /  1008.7hPa ESE 2.0mph /  3.2km/h 3.0mph /  4.8km/h 89% 0.00in /  0mm 70 W/m2
13:34 44.1 °F /  6.7 °C 41.4 °F /  5.2 °C 29.79in /  1008.7hPa NE 2.0mph /  3.2km/h 5.0mph /  8km/h 90% 0.00in /  0mm 72 W/m2
13:40 44.3 °F /  6.8 °C 41.6 °F /  5.3 °C 29.79in /  1008.7hPa ENE 3.0mph /  4.8km/h 3.0mph /  4.8km/h 90% 0.00in /  0mm 105 W/m2
13:46 44.4 °F /  6.9 °C 41.7 °F /  5.4 °C 29.79in /  1008.7hPa ENE 2.0mph /  3.2km/h 3.0mph /  4.8km/h 90% 0.00in /  0mm 148 W/m2
13:52 44.7 °F /  7.1 °C 42.2 °F /  5.7 °C 29.79in /  1008.7hPa ENE 2.0mph /  3.2km/h 4.0mph /  6.4km/h 91% 0.00in /  0mm 171 W/m2
13:58 44.8 °F /  7.1 °C 42.3 °F /  5.7 °C 29.79in /  1008.7hPa ENE 3.0mph /  4.8km/h 4.0mph /  6.4km/h 91% 0.00in /  0mm 267 W/m2
14:04 45.0 °F /  7.2 °C 42.5 °F /  5.8 °C 29.79in /  1008.7hPa ENE 3.0mph /  4.8km/h 5.0mph /  8km/h 91% 0.00in /  0mm 214 W/m2
14:10 45.1 °F /  7.3 °C 42.6 °F /  5.9 °C 29.78in /  1008.4hPa ENE 3.0mph /  4.8km/h 5.0mph /  8km/h 91% 0.00in /  0mm 199 W/m2
14:16 45.3 °F /  7.4 °C 42.8 °F /  6 °C 29.78in /  1008.4hPa NE 3.0mph /  4.8km/h 5.0mph /  8km/h 91% 0.00in /  0mm 308 W/m2
14:22 45.6 °F /  7.6 °C 43.1 °F /  6.2 °C 29.78in /  1008.4hPa ENE 2.0mph /  3.2km/h 3.0mph /  4.8km/h 91% 0.00in /  0mm 229 W/m2
14:28 45.8 °F /  7.7 °C 43.3 °F /  6.3 °C 29.78in /  1008.4hPa ENE 2.0mph /  3.2km/h 3.0mph /  4.8km/h 91% 0.00in /  0mm 214 W/m2
14:34 46.4 °F /  8 °C 43.9 °F /  6.6 °C 29.79in /  1008.7hPa East 2.0mph /  3.2km/h 3.0mph /  4.8km/h 91% 0.00in /  0mm 294 W/m2
14:40 46.5 °F /  8.1 °C 43.7 °F /  6.5 °C 29.78in /  1008.4hPa East 2.0mph /  3.2km/h 2.0mph /  3.2km/h 90% 0.00in /  0mm 197 W/m2
14:46 47.4 °F /  8.6 °C 44.3 °F /  6.8 °C 29.79in /  1008.7hPa East 2.0mph /  3.2km/h 3.0mph /  4.8km/h 89% 0.00in /  0mm 237 W/m2
14:52 48.9 °F /  9.4 °C 45.8 °F /  7.7 °C 29.79in /  1008.7hPa East 1.0mph /  1.6km/h 3.0mph /  4.8km/h 89% 0.00in /  0mm 427 W/m2
14:58 49.2 °F /  9.6 °C 45.2 °F /  7.3 °C 29.80in /  1009hPa ENE 2.0mph /  3.2km/h 5.0mph /  8km/h 86% 0.00in /  0mm 165 W/m2
15:04 48.7 °F /  9.3 °C 44.4 °F /  6.9 °C 29.80in /  1009hPa ENE 2.0mph /  3.2km/h 2.0mph /  3.2km/h 85% 0.00in /  0mm 167 W/m2
15:10 48.2 °F /  9 °C 43.9 °F /  6.6 °C 29.80in /  1009hPa ENE 1.0mph /  1.6km/h 3.0mph /  4.8km/h 85% 0.00in /  0mm 158 W/m2
15:16 47.8 °F /  8.8 °C 43.8 °F /  6.6 °C 29.80in /  1009hPa ENE 2.0mph /  3.2km/h 4.0mph /  6.4km/h 86% 0.00in /  0mm 146 W/m2
15:22 47.7 °F /  8.7 °C 43.7 °F /  6.5 °C 29.80in /  1009hPa ENE 2.0mph /  3.2km/h 2.0mph /  3.2km/h 86% 0.00in /  0mm 163 W/m2
15:28 47.5 °F /  8.6 °C 43.5 °F /  6.4 °C 29.80in /  1009hPa ENE 2.0mph /  3.2km/h 3.0mph /  4.8km/h 86% 0.00in /  0mm 155 W/m2
15:34 47.4 °F /  8.6 °C 43.4 °F /  6.3 °C 29.80in /  1009hPa ENE 2.0mph /  3.2km/h 4.0mph /  6.4km/h 86% 0.00in /  0mm 151 W/m2
15:40 47.6 °F /  8.7 °C 43.9 °F /  6.6 °C 29.80in /  1009hPa ENE 1.0mph /  1.6km/h 2.0mph /  3.2km/h 87% 0.00in /  0mm 132 W/m2
15:46 47.8 °F /  8.8 °C 44.1 °F /  6.7 °C 29.80in /  1009hPa ENE 1.0mph /  1.6km/h 2.0mph /  3.2km/h 87% 0.00in /  0mm 120 W/m2
15:52 47.9 °F /  8.8 °C 44.2 °F /  6.8 °C 29.80in /  1009hPa ENE 1.0mph /  1.6km/h 1.0mph /  1.6km/h 87% 0.00in /  0mm 144 W/m2
15:58 47.8 °F /  8.8 °C 44.1 °F /  6.7 °C 29.80in /  1009hPa ENE 2.0mph /  3.2km/h 3.0mph /  4.8km/h 87% 0.00in /  0mm 283 W/m2
16:04 47.5 °F /  8.6 °C 43.8 °F /  6.6 °C 29.80in /  1009hPa ENE 2.0mph /  3.2km/h 4.0mph /  6.4km/h 87% 0.00in /  0mm 116 W/m2
16:10 47.4 °F /  8.6 °C 43.7 °F /  6.5 °C 29.80in /  1009hPa ENE 1.0mph /  1.6km/h 2.0mph /  3.2km/h 87% 0.00in /  0mm 79 W/m2
16:16 47.1 °F /  8.4 °C 43.4 °F /  6.3 °C 29.81in /  1009.4hPa ENE 2.0mph /  3.2km/h 3.0mph /  4.8km/h 87% 0.00in /  0mm 127 W/m2
16:22 46.8 °F /  8.2 °C 43.1 °F /  6.2 °C 29.81in /  1009.4hPa ENE 2.0mph /  3.2km/h 2.0mph /  3.2km/h 87% 0.00in /  0mm 100 W/m2
16:28 46.8 °F /  8.2 °C 43.1 °F /  6.2 °C 29.81in /  1009.4hPa Calm   2.0mph /  3.2km/h 87% 0.00in /  0mm 97 W/m2
16:34 46.7 °F /  8.2 °C 43.0 °F /  6.1 °C 29.81in /  1009.4hPa Calm   2.0mph /  3.2km/h 87% 0.00in /  0mm 98 W/m2
16:40 46.6 °F /  8.1 °C 42.9 °F /  6.1 °C 29.82in /  1009.7hPa Calm     87% 0.00in /  0mm 83 W/m2
16:46 46.2 °F /  7.9 °C 42.8 °F /  6 °C 29.82in /  1009.7hPa Calm   1.0mph /  1.6km/h 88% 0.00in /  0mm 69 W/m2
16:52 46.0 °F /  7.8 °C 42.6 °F /  5.9 °C 29.83in /  1010hPa Calm   1.0mph /  1.6km/h 88% 0.00in /  0mm 51 W/m2
16:58 46.0 °F /  7.8 °C 42.6 °F /  5.9 °C 29.83in /  1010hPa ENE 1.0mph /  1.6km/h 2.0mph /  3.2km/h 88% 0.00in /  0mm 65 W/m2
17:04 45.8 °F /  7.7 °C 42.4 °F /  5.8 °C 29.82in /  1009.7hPa ENE 1.0mph /  1.6km/h 1.0mph /  1.6km/h 88% 0.00in /  0mm 62 W/m2
17:10 45.8 °F /  7.7 °C 42.7 °F /  5.9 °C 29.83in /  1010hPa Calm   1.0mph /  1.6km/h 89% 0.00in /  0mm 56 W/m2
17:16 45.4 °F /  7.4 °C 42.1 °F /  5.6 °C 29.83in /  1010hPa ENE 1.0mph /  1.6km/h 1.0mph /  1.6km/h 88% 0.00in /  0mm 33 W/m2
17:22 44.8 °F /  7.1 °C 41.5 °F /  5.3 °C 29.83in /  1010hPa ENE 1.0mph /  1.6km/h 1.0mph /  1.6km/h 88% 0.00in /  0mm 25 W/m2
17:28 44.4 °F /  6.9 °C 41.4 °F /  5.2 °C 29.83in /  1010hPa Calm   1.0mph /  1.6km/h 89% 0.00in /  0mm 25 W/m2
17:34 44.1 °F /  6.7 °C 41.1 °F /  5.1 °C 29.83in /  1010hPa Calm     89% 0.00in /  0mm 21 W/m2
17:40 43.6 °F /  6.4 °C 40.6 °F /  4.8 °C 29.83in /  1010hPa Calm     89% 0.00in /  0mm 11 W/m2
17:46 43.0 °F /  6.1 °C 40.0 °F /  4.4 °C 29.83in /  1010hPa Calm     89% 0.00in /  0mm 5 W/m2
17:52 42.4 °F /  5.8 °C 39.4 °F /  4.1 °C 29.84in /  1010.4hPa Calm     89% 0.00in /  0mm 0 W/m2
17:58 41.9 °F /  5.5 °C 38.9 °F /  3.8 °C 29.85in /  1010.7hPa Calm     89% 0.00in /  0mm 0 W/m2
18:04 41.3 °F /  5.2 °C 38.3 °F /  3.5 °C 29.85in /  1010.7hPa Calm     89% 0.00in /  0mm 0 W/m2
18:10 40.8 °F /  4.9 °C 37.8 °F /  3.2 °C 29.85in /  1010.7hPa Calm     89% 0.00in /  0mm 0 W/m2
18:16 40.3 °F /  4.6 °C 37.3 °F /  2.9 °C 29.86in /  1011.1hPa Calm     89% 0.00in /  0mm 0 W/m2
18:22 39.9 °F /  4.4 °C 37.2 °F /  2.9 °C 29.86in /  1011.1hPa Calm     90% 0.00in /  0mm 0 W/m2
18:28 39.6 °F /  4.2 °C 36.9 °F /  2.7 °C 29.87in /  1011.4hPa Calm     90% 0.00in /  0mm 0 W/m2
18:34 39.4 °F /  4.1 °C 36.7 °F /  2.6 °C 29.87in /  1011.4hPa Calm     90% 0.00in /  0mm 0 W/m2
18:40 39.1 °F /  3.9 °C 36.4 °F /  2.4 °C 29.88in /  1011.7hPa Calm     90% 0.00in /  0mm 0 W/m2
18:46 38.9 °F /  3.8 °C 36.2 °F /  2.3 °C 29.88in /  1011.7hPa Calm     90% 0.00in /  0mm 0 W/m2
18:52 38.5 °F /  3.6 °C 35.8 °F /  2.1 °C 29.89in /  1012.1hPa Calm     90% 0.00in /  0mm 0 W/m2
18:58 38.3 °F /  3.5 °C 35.9 °F /  2.2 °C 29.89in /  1012.1hPa Calm   2.0mph /  3.2km/h 91% 0.00in /  0mm 0 W/m2
19:04 38.1 °F /  3.4 °C 35.4 °F /  1.9 °C 29.89in /  1012.1hPa Calm     90% 0.00in /  0mm 0 W/m2
19:10 37.9 °F /  3.3 °C 35.5 °F /  1.9 °C 29.89in /  1012.1hPa Calm     91% 0.00in /  0mm 0 W/m2
19:16 37.8 °F /  3.2 °C 35.4 °F /  1.9 °C 29.89in /  1012.1hPa Calm     91% 0.00in /  0mm 0 W/m2
19:22 37.7 °F /  3.2 °C 35.3 °F /  1.8 °C 29.89in /  1012.1hPa ENE 1.0mph /  1.6km/h 1.0mph /  1.6km/h 91% 0.00in /  0mm 0 W/m2
19:28 37.6 °F /  3.1 °C 35.2 °F /  1.8 °C 29.89in /  1012.1hPa Calm   1.0mph /  1.6km/h 91% 0.00in /  0mm 0 W/m2
19:34 37.5 °F /  3.1 °C 35.1 °F /  1.7 °C 29.89in /  1012.1hPa Calm     91% 0.00in /  0mm 0 W/m2
19:40 37.3 °F /  2.9 °C 34.9 °F /  1.6 °C 29.90in /  1012.4hPa Calm     91% 0.00in /  0mm 0 W/m2
19:46 37.2 °F /  2.9 °C 34.8 °F /  1.6 °C 29.90in /  1012.4hPa Calm     91% 0.00in /  0mm 0 W/m2
19:52 37.1 °F /  2.8 °C 35.0 °F /  1.7 °C 29.91in /  1012.8hPa Calm     92% 0.00in /  0mm 0 W/m2
19:58 37.4 °F /  3 °C 35.3 °F /  1.8 °C 29.91in /  1012.8hPa Calm     92% 0.00in /  0mm 0 W/m2
20:04 37.7 °F /  3.2 °C 35.6 °F /  2 °C 29.91in /  1012.8hPa Calm     92% 0.00in /  0mm 0 W/m2
20:10 37.9 °F /  3.3 °C 35.8 °F /  2.1 °C 29.90in /  1012.4hPa Calm     92% 0.00in /  0mm 0 W/m2
20:16 38.0 °F /  3.3 °C 35.9 °F /  2.2 °C 29.91in /  1012.8hPa Calm     92% 0.00in /  0mm 0 W/m2
20:22 37.9 °F /  3.3 °C 35.8 °F /  2.1 °C 29.91in /  1012.8hPa Calm     92% 0.00in /  0mm 0 W/m2
20:28 37.7 °F /  3.2 °C 35.6 °F /  2 °C 29.92in /  1013.1hPa Calm     92% 0.00in /  0mm 0 W/m2
20:34 37.6 °F /  3.1 °C 35.5 °F /  1.9 °C 29.92in /  1013.1hPa Calm     92% 0.00in /  0mm 0 W/m2
20:40 37.3 °F /  2.9 °C 35.2 °F /  1.8 °C 29.93in /  1013.4hPa Calm     92% 0.00in /  0mm 0 W/m2
20:46 36.9 °F /  2.7 °C 34.8 °F /  1.6 °C 29.94in /  1013.8hPa Calm     92% 0.00in /  0mm 0 W/m2
20:52 36.6 °F /  2.6 °C 34.5 °F /  1.4 °C 29.94in /  1013.8hPa Calm     92% 0.00in /  0mm 0 W/m2
20:58 36.4 °F /  2.4 °C 34.3 °F /  1.3 °C 29.94in /  1013.8hPa Calm     92% 0.00in /  0mm 0 W/m2
21:04 36.1 °F /  2.3 °C 34.0 °F /  1.1 °C 29.94in /  1013.8hPa Calm     92% 0.00in /  0mm 0 W/m2
21:10 36.2 °F /  2.3 °C 34.1 °F /  1.2 °C 29.94in /  1013.8hPa Calm     92% 0.00in /  0mm 0 W/m2
21:16 36.4 °F /  2.4 °C 34.3 °F /  1.3 °C 29.94in /  1013.8hPa Calm     92% 0.00in /  0mm 0 W/m2
21:22 37.0 °F /  2.8 °C 35.2 °F /  1.8 °C 29.95in /  1014.1hPa NW 1.0mph /  1.6km/h 4.0mph /  6.4km/h 93% 0.00in /  0mm 0 W/m2
21:28 37.7 °F /  3.2 °C 35.6 °F /  2 °C 29.95in /  1014.1hPa WNW 2.0mph /  3.2km/h 4.0mph /  6.4km/h 92% 0.00in /  0mm 0 W/m2
21:34 38.1 °F /  3.4 °C 36.0 °F /  2.2 °C 29.95in /  1014.1hPa WNW 1.0mph /  1.6km/h 2.0mph /  3.2km/h 92% 0.00in /  0mm 0 W/m2
21:40 38.5 °F /  3.6 °C 36.1 °F /  2.3 °C 29.95in /  1014.1hPa WNW 1.0mph /  1.6km/h 1.0mph /  1.6km/h 91% 0.00in /  0mm 0 W/m2
21:46 38.4 °F /  3.6 °C 35.7 °F /  2.1 °C 29.95in /  1014.1hPa Calm   1.0mph /  1.6km/h 90% 0.00in /  0mm 0 W/m2
21:52 38.3 °F /  3.5 °C 35.1 °F /  1.7 °C 29.96in /  1014.4hPa Calm     88% 0.00in /  0mm 0 W/m2
21:58 38.7 °F /  3.7 °C 34.9 °F /  1.6 °C 29.95in /  1014.1hPa WNW 1.0mph /  1.6km/h 1.0mph /  1.6km/h 86% 0.00in /  0mm 0 W/m2
22:04 39.2 °F /  4 °C 34.5 °F /  1.4 °C 29.96in /  1014.4hPa WNW 1.0mph /  1.6km/h 2.0mph /  3.2km/h 83% 0.00in /  0mm 0 W/m2
22:10 39.4 °F /  4.1 °C 33.7 °F /  0.9 °C 29.96in /  1014.4hPa WNW 1.0mph /  1.6km/h 1.0mph /  1.6km/h 80% 0.00in /  0mm 0 W/m2
22:16 39.7 °F /  4.3 °C 33.4 °F /  0.8 °C 29.96in /  1014.4hPa WNW 1.0mph /  1.6km/h 1.0mph /  1.6km/h 78% 0.00in /  0mm 0 W/m2
22:22 39.8 °F /  4.3 °C 32.8 °F /  0.4 °C 29.97in /  1014.8hPa WNW 1.0mph /  1.6km/h 2.0mph /  3.2km/h 76% 0.00in /  0mm 0 W/m2
22:28 40.0 °F /  4.4 °C 32.4 °F /  0.2 °C 29.97in /  1014.8hPa NW 1.0mph /  1.6km/h 4.0mph /  6.4km/h 74% 0.00in /  0mm 0 W/m2
22:34 39.9 °F /  4.4 °C 31.9 °F /  -0.1 °C 29.97in /  1014.8hPa WNW 1.0mph /  1.6km/h 1.0mph /  1.6km/h 73% 0.00in /  0mm 0 W/m2
22:40 39.8 °F /  4.3 °C 31.8 °F /  -0.1 °C 29.98in /  1015.1hPa Calm   1.0mph /  1.6km/h 73% 0.00in /  0mm 0 W/m2
22:46 39.6 °F /  4.2 °C 31.7 °F /  -0.2 °C 29.97in /  1014.8hPa WNW 1.0mph /  1.6km/h 3.0mph /  4.8km/h 73% 0.00in /  0mm 0 W/m2
22:52 39.4 °F /  4.1 °C 31.8 °F /  -0.1 °C 29.98in /  1015.1hPa WNW 1.0mph /  1.6km/h 3.0mph /  4.8km/h 74% 0.00in /  0mm 0 W/m2
22:58 39.3 °F /  4.1 °C 31.7 °F /  -0.2 °C 29.97in /  1014.8hPa Calm   3.0mph /  4.8km/h 74% 0.00in /  0mm 0 W/m2
23:04 39.1 °F /  3.9 °C 31.5 °F /  -0.3 °C 29.97in /  1014.8hPa WNW 1.0mph /  1.6km/h 2.0mph /  3.2km/h 74% 0.00in /  0mm 0 W/m2
23:10 39.1 °F /  3.9 °C 31.5 °F /  -0.3 °C 29.97in /  1014.8hPa WNW 1.0mph /  1.6km/h 1.0mph /  1.6km/h 74% 0.00in /  0mm 0 W/m2
23:16 39.3 °F /  4.1 °C 31.7 °F /  -0.2 °C 29.97in /  1014.8hPa WSW 2.0mph /  3.2km/h 5.0mph /  8km/h 74% 0.00in /  0mm 0 W/m2
23:22 39.6 °F /  4.2 °C 31.7 °F /  -0.2 °C 29.98in /  1015.1hPa West 3.0mph /  4.8km/h 3.0mph /  4.8km/h 73% 0.00in /  0mm 0 W/m2
23:28 39.7 °F /  4.3 °C 31.8 °F /  -0.1 °C 29.98in /  1015.1hPa WNW 3.0mph /  4.8km/h 3.0mph /  4.8km/h 73% 0.00in /  0mm 0 W/m2
23:34 39.9 °F /  4.4 °C 31.9 °F /  -0.1 °C 29.99in /  1015.5hPa WNW 3.0mph /  4.8km/h 5.0mph /  8km/h 73% 0.00in /  0mm 0 W/m2
23:40 40.0 °F /  4.4 °C 31.7 °F /  -0.2 °C 29.99in /  1015.5hPa WNW 3.0mph /  4.8km/h 3.0mph /  4.8km/h 72% 0.00in /  0mm 0 W/m2
23:46 40.0 °F /  4.4 °C 31.7 °F /  -0.2 °C 29.99in /  1015.5hPa WNW 3.0mph /  4.8km/h 3.0mph /  4.8km/h 72% 0.00in /  0mm 0 W/m2
23:52 39.8 °F /  4.3 °C 31.5 °F /  -0.3 °C 29.99in /  1015.5hPa WSW 2.0mph /  3.2km/h 2.0mph /  3.2km/h 72% 0.00in /  0mm 0 W/m2
23:58 39.7 °F /  4.3 °C 31.4 °F /  -0.3 °C 29.99in /  1015.5hPa WSW 2.0mph /  3.2km/h 3.0mph /  4.8km/h 72% 0.00in /  0mm 0 W/m2
Country Meadow, Clay, NY, USA
Compliments of Weather Underground - 2 mb